Nong Khai, Thailand

3:09 PM ICT on February 26, 2017 (GMT +0700)
tha bo moo 1 | | Change Station

Elev 571 ft 17.86 °N, 102.58 °E | Updated 5 minutes ago

Mostly Cloudy
Mostly Cloudy
80.9 °F
Feels Like 83 °F
N
0.0
Wind Variable Wind from North
Gusts 3.0 mph

Today
High -- | Low -- °F
--% Chance of Precip.
Yesterday
High -- | Low -- °F
Precip. -- in
Pressure 29.92 in
Visibility 6.2 miles
Clouds Few 4500 ft
Heat Index 83 °F
Dew Point 65 °F
Humidity 59%
Rainfall 0.00 in
Snow Depth Not available.
6:29 AM 6:14 PM
Waning Crescent, 0% visible
METAR VTUD 260700Z VRB06KT 9999 FEW045 27/17 Q1013
Pressure 29.92 in
Visibility 6.2 miles
Clouds Few 4500 ft
Heat Index 83 °F
Dew Point 65 °F
Humidity 59%
Rainfall 0.00 in
Snow Depth Not available.
6:29 AM 6:14 PM
Waning Crescent, 0% visible
METAR VTUD 260700Z VRB06KT 9999 FEW045 27/17 Q1013

Get Your Daily Forecast Email!

Thanks for signing up!

Be on the lookout for a verification email in your inbox.

You'll start receiving the daily forecast at 8 AM.

×

10-Day Weather Forecast

No radar image for this location.
×

Almanac

Astronomy

Feb. 26, 2017 Rise Set
Actual Time
Civil Twilight
Nautical Twilight
Astronomical Twilight
Moon
Length of Visible Light
Length of Day
Tomorrow will be .
, % of the Moon is Illuminated

Today's Extremes

Country Highs Country Lows

Community

WunderPhotos

Upload Photos

1,962,540 photos uploaded!

WunderBlog® & News

Nearby

Air Quality

  Air Quality AQ Index Pollutant
Not available.

Snow Depth

Station Depth Elevation

Earthquake Activity

City Distance Mag. Time & Date
Minimum magnitude displayed is 2.5.

Coastal Water Temperatures

Place Temperature

Stations

Nearby Weather Stations

Station Location Temp. Windchill Dew Point Humidity Wind Precip. Elev Updated Type